createdAt,value
2019-05-30T00:00:17.404Z,16.02
2019-05-30T00:02:42.529Z,15.98
2019-05-30T00:05:12.091Z,15.96
2019-05-30T00:07:42.417Z,15.98
2019-05-30T00:10:11.907Z,15.99
2019-05-30T00:12:41.244Z,15.97
2019-05-30T00:15:11.254Z,15.94
2019-05-30T00:17:40.580Z,15.91
2019-05-30T00:20:10.182Z,15.88
2019-05-30T00:22:39.881Z,15.88
2019-05-30T00:25:10.662Z,15.87
2019-05-30T00:27:40.330Z,15.84
2019-05-30T00:30:23.801Z,15.84
2019-05-30T00:32:41.829Z,15.82
2019-05-30T00:35:11.407Z,15.81
2019-05-30T00:37:40.738Z,15.82
2019-05-30T00:40:10.505Z,15.82
2019-05-30T00:42:39.831Z,15.81
2019-05-30T00:45:20.453Z,15.77
2019-05-30T00:47:40.342Z,15.72
2019-05-30T00:50:09.811Z,15.72
2019-05-30T00:52:39.154Z,15.74
2019-05-30T00:55:08.785Z,15.72
2019-05-30T00:57:38.123Z,15.70
2019-05-30T01:00:08.797Z,15.70
2019-05-30T01:02:38.126Z,15.71
2019-05-30T01:05:08.727Z,15.67
2019-05-30T01:07:38.049Z,15.67
2019-05-30T01:10:08.231Z,15.68
2019-05-30T01:12:37.724Z,15.67
2019-05-30T01:15:08.573Z,15.67
2019-05-30T01:17:37.911Z,15.64
2019-05-30T01:20:07.909Z,15.62
2019-05-30T01:22:37.554Z,15.57
2019-05-30T01:25:07.999Z,15.54
2019-05-30T01:30:11.245Z,15.57
2019-05-30T01:32:40.597Z,15.52
2019-05-30T01:35:11.129Z,15.52
2019-05-30T01:37:40.460Z,15.52
2019-05-30T01:40:10.834Z,15.50
2019-05-30T01:42:40.180Z,15.50
2019-05-30T01:45:09.738Z,15.53
2019-05-30T01:47:39.062Z,15.50
2019-05-30T01:50:11.170Z,15.48
2019-05-30T01:52:41.473Z,15.47
2019-05-30T01:55:11.537Z,15.46
2019-05-30T01:57:40.865Z,15.44
2019-05-30T02:00:20.560Z,15.43
2019-05-30T02:02:44.100Z,15.46
2019-05-30T02:05:15.616Z,15.50
2019-05-30T02:07:44.950Z,15.48
2019-05-30T02:10:15.727Z,15.47
2019-05-30T02:12:45.051Z,15.47
2019-05-30T02:15:14.818Z,15.48
2019-05-30T02:17:44.148Z,15.49
2019-05-30T02:20:13.829Z,15.44
2019-05-30T02:22:43.164Z,15.47
2019-05-30T02:25:12.829Z,15.46
2019-05-30T02:27:42.158Z,15.44
2019-05-30T02:30:14.877Z,15.42
2019-05-30T02:32:42.946Z,15.45
2019-05-30T02:35:12.967Z,15.44
2019-05-30T02:37:42.349Z,15.45
2019-05-30T02:40:14.914Z,15.41
2019-05-30T02:42:43.027Z,15.42
2019-05-30T02:45:12.790Z,15.35
2019-05-30T02:47:42.180Z,15.38
2019-05-30T02:50:14.050Z,15.39
2019-05-30T02:52:43.341Z,15.37
2019-05-30T02:55:13.732Z,15.38
2019-05-30T02:57:43.316Z,15.40
2019-05-30T03:00:17.741Z,15.37
2019-05-30T03:02:44.922Z,15.39
2019-05-30T03:05:15.321Z,15.33
2019-05-30T03:07:44.967Z,15.29
2019-05-30T03:10:15.384Z,15.30
2019-05-30T03:12:45.076Z,15.28
2019-05-30T03:15:15.729Z,15.27
2019-05-30T03:17:45.368Z,15.30
2019-05-30T03:20:22.906Z,15.31
2019-05-30T03:22:47.807Z,15.27
2019-05-30T03:25:17.511Z,15.23
2019-05-30T03:27:47.023Z,15.12
2019-05-30T03:30:26.747Z,15.14
2019-05-30T03:33:05.583Z,15.17
2019-05-30T03:35:28.746Z,15.17
2019-05-30T03:37:52.053Z,15.11
2019-05-30T03:40:23.522Z,15.09
2019-05-30T03:42:52.419Z,15.06
2019-05-30T03:45:23.682Z,15.02
2019-05-30T03:47:56.061Z,15.05
2019-05-30T03:50:28.270Z,14.99
2019-05-30T03:52:58.345Z,14.99
2019-05-30T03:55:29.612Z,15.02
2019-05-30T03:58:09.947Z,15.05
2019-05-30T04:00:45.386Z,15.05
2019-05-30T04:03:38.792Z,15.08
2019-05-30T04:06:15.903Z,15.08
2019-05-30T04:08:47.642Z,15.07
2019-05-30T04:11:19.992Z,15.08
2019-05-30T04:13:52.382Z,15.09
2019-05-30T04:16:21.703Z,15.11
2019-05-30T04:18:51.041Z,15.10
2019-05-30T04:21:21.687Z,15.11
2019-05-30T04:23:51.269Z,15.17
2019-05-30T04:26:20.864Z,15.18
2019-05-30T04:28:50.206Z,15.17
2019-05-30T04:31:22.497Z,15.17
2019-05-30T04:33:50.556Z,15.17
2019-05-30T04:36:19.884Z,15.17
2019-05-30T04:38:49.217Z,15.17
2019-05-30T04:41:20.828Z,15.19
2019-05-30T04:43:49.582Z,15.21
2019-05-30T04:46:21.037Z,15.23
2019-05-30T04:48:49.939Z,15.21
2019-05-30T04:51:21.580Z,15.22
2019-05-30T04:53:50.671Z,15.23
2019-05-30T04:56:21.939Z,15.24
2019-05-30T04:58:51.319Z,15.24
2019-05-30T05:01:22.118Z,15.27
2019-05-30T05:03:51.879Z,15.27
2019-05-30T05:06:21.899Z,15.27
2019-05-30T05:08:51.537Z,15.30
2019-05-30T05:11:24.662Z,15.32
2019-05-30T05:13:51.883Z,15.31
2019-05-30T05:16:33.660Z,15.35
2019-05-30T05:18:52.479Z,15.34
2019-05-30T05:21:22.880Z,15.34
2019-05-30T05:23:52.417Z,15.34
2019-05-30T05:26:21.748Z,15.32
2019-05-30T05:28:51.090Z,15.31
2019-05-30T05:31:20.473Z,15.31
2019-05-30T05:33:56.567Z,15.32
2019-05-30T05:36:21.369Z,15.33
2019-05-30T05:38:50.705Z,15.34
2019-05-30T05:41:22.256Z,15.34
2019-05-30T05:43:51.301Z,15.38
2019-05-30T05:46:20.635Z,15.37
2019-05-30T05:48:50.243Z,15.44
2019-05-30T05:51:20.784Z,15.46
2019-05-30T05:53:50.191Z,15.46
2019-05-30T05:56:20.758Z,15.46
2019-05-30T05:58:50.137Z,15.47
2019-05-30T06:01:19.528Z,15.49
2019-05-30T06:03:48.854Z,15.51
2019-05-30T06:06:19.176Z,15.45
2019-05-30T06:08:48.658Z,15.52
2019-05-30T06:11:18.613Z,15.53
2019-05-30T06:13:48.102Z,15.49
2019-05-30T06:16:17.778Z,15.47
2019-05-30T06:18:47.238Z,15.47
2019-05-30T06:21:17.261Z,15.46
2019-05-30T06:23:46.635Z,15.40
2019-05-30T06:26:17.786Z,15.42
2019-05-30T06:28:47.581Z,15.41
2019-05-30T06:31:18.283Z,15.41
2019-05-30T06:33:47.635Z,15.29
2019-05-30T06:36:16.957Z,15.16
2019-05-30T06:38:46.284Z,15.15
2019-05-30T06:41:15.666Z,15.16
2019-05-30T06:43:44.987Z,15.20
2019-05-30T06:46:14.315Z,15.11
2019-05-30T06:48:43.661Z,15.07
2019-05-30T06:51:14.698Z,15.04
2019-05-30T06:53:44.256Z,14.99
2019-05-30T06:56:13.588Z,14.97
2019-05-30T06:58:48.738Z,14.97
2019-05-30T07:01:13.991Z,15.03
2019-05-30T07:03:43.519Z,15.04
2019-05-30T07:06:13.349Z,14.94
2019-05-30T07:08:42.843Z,14.86
2019-05-30T07:11:12.178Z,14.92
2019-05-30T07:13:41.502Z,14.91
2019-05-30T07:16:11.147Z,14.84
2019-05-30T07:18:40.762Z,14.78
2019-05-30T07:21:10.371Z,14.77
2019-05-30T07:23:39.982Z,14.79
2019-05-30T07:26:09.586Z,14.75
2019-05-30T07:28:38.921Z,14.75
2019-05-30T07:31:08.258Z,14.75
2019-05-30T07:33:37.592Z,14.80
2019-05-30T07:36:06.932Z,14.82
2019-05-30T07:38:36.602Z,14.80
2019-05-30T07:41:06.209Z,14.73
2019-05-30T07:43:35.613Z,14.78
2019-05-30T07:46:05.248Z,14.83
2019-05-30T07:48:34.582Z,14.89
2019-05-30T07:51:03.943Z,14.96
2019-05-30T07:53:33.537Z,14.91
2019-05-30T07:56:03.049Z,14.91
2019-05-30T07:58:33.373Z,14.98
2019-05-30T08:01:02.738Z,15.05
2019-05-30T08:03:34.721Z,15.17
2019-05-30T08:06:04.310Z,15.20
2019-05-30T08:08:33.944Z,15.24
2019-05-30T08:11:09.259Z,15.32
2019-05-30T08:13:35.275Z,15.41
2019-05-30T08:16:04.721Z,15.48
2019-05-30T08:18:34.018Z,15.55
2019-05-30T08:21:03.359Z,15.61
2019-05-30T08:23:32.686Z,15.69
2019-05-30T08:26:02.022Z,15.76
2019-05-30T08:28:32.220Z,15.74
2019-05-30T08:31:02.649Z,15.83
2019-05-30T08:33:33.599Z,15.89
2019-05-30T08:36:05.495Z,15.96
2019-05-30T08:38:35.330Z,15.95
2019-05-30T08:41:05.833Z,16.02
2019-05-30T08:43:35.574Z,16.07
2019-05-30T08:46:04.958Z,16.14
2019-05-30T08:48:34.561Z,16.21
2019-05-30T08:51:04.307Z,16.28
2019-05-30T08:53:34.365Z,16.35
2019-05-30T08:56:05.311Z,16.36
2019-05-30T08:58:34.660Z,16.42
2019-05-30T09:01:03.983Z,16.41
2019-05-30T09:03:33.311Z,16.52
2019-05-30T09:06:04.319Z,16.54
2019-05-30T09:08:33.832Z,16.58
2019-05-30T09:11:03.397Z,16.51
2019-05-30T09:13:32.727Z,16.54
2019-05-30T09:16:02.054Z,16.58
2019-05-30T09:18:31.392Z,16.61
2019-05-30T09:21:00.719Z,16.60
2019-05-30T09:23:30.274Z,16.53
2019-05-30T09:25:59.778Z,16.60
2019-05-30T09:28:29.107Z,16.65
2019-05-30T09:30:58.434Z,16.63
2019-05-30T09:33:27.763Z,16.67
2019-05-30T09:36:12.254Z,16.76
2019-05-30T09:38:28.124Z,16.71
2019-05-30T09:40:57.682Z,16.70
2019-05-30T09:43:27.021Z,16.67
2019-05-30T09:45:56.583Z,16.73
2019-05-30T09:48:25.991Z,16.71
2019-05-30T09:50:55.551Z,16.71
2019-05-30T09:53:24.882Z,16.79
2019-05-30T09:55:54.286Z,16.86
2019-05-30T09:58:24.150Z,16.89
2019-05-30T10:00:53.489Z,16.94
2019-05-30T10:03:22.814Z,16.98
2019-05-30T10:05:52.665Z,17.07
2019-05-30T10:08:23.051Z,17.12
2019-05-30T10:10:53.514Z,17.17
2019-05-30T10:13:23.022Z,17.15
2019-05-30T10:15:52.695Z,17.15
2019-05-30T10:18:21.999Z,17.23
2019-05-30T10:20:53.259Z,17.26
2019-05-30T10:23:22.482Z,17.24
2019-05-30T10:25:51.813Z,17.31
2019-05-30T10:28:21.143Z,17.37
2019-05-30T10:30:54.518Z,17.45
2019-05-30T10:33:22.689Z,17.50
2019-05-30T10:35:53.310Z,17.52
2019-05-30T10:38:22.846Z,17.49
2019-05-30T10:40:52.435Z,17.48
2019-05-30T10:43:21.791Z,17.49
2019-05-30T10:45:53.291Z,17.46
2019-05-30T10:48:22.708Z,17.45
2019-05-30T10:50:52.330Z,17.42
2019-05-30T10:53:21.647Z,17.48
2019-05-30T10:55:52.962Z,17.51
2019-05-30T10:58:22.341Z,17.52
2019-05-30T11:00:55.728Z,17.49
2019-05-30T11:03:25.874Z,17.48
2019-05-30T11:06:23.732Z,17.49
2019-05-30T11:08:54.772Z,17.56
2019-05-30T11:11:24.112Z,17.64
2019-05-30T11:13:53.468Z,17.74
2019-05-30T11:16:22.772Z,17.81
2019-05-30T11:18:56.087Z,17.87
2019-05-30T11:21:25.533Z,17.98
2019-05-30T11:23:54.882Z,18.05
2019-05-30T11:26:24.199Z,18.07
2019-05-30T11:28:54.788Z,18.07
2019-05-30T11:31:24.084Z,18.12
2019-05-30T11:33:54.982Z,18.08
2019-05-30T11:36:24.358Z,18.03
2019-05-30T11:38:53.767Z,17.97
2019-05-30T11:41:23.024Z,18.03
2019-05-30T11:43:53.544Z,18.03
2019-05-30T11:46:22.908Z,18.02
2019-05-30T11:48:52.244Z,17.97
2019-05-30T11:51:21.744Z,17.95
2019-05-30T11:53:51.818Z,17.92
2019-05-30T11:56:21.150Z,17.92
2019-05-30T11:58:50.523Z,17.87
2019-05-30T12:01:19.848Z,17.84
2019-05-30T12:03:50.481Z,17.85
2019-05-30T12:06:19.849Z,17.86
2019-05-30T12:08:49.245Z,17.80
2019-05-30T12:11:18.574Z,17.73
2019-05-30T12:13:47.911Z,17.80
2019-05-30T12:16:18.209Z,17.77
2019-05-30T12:18:47.788Z,17.73
2019-05-30T12:21:17.125Z,17.74
2019-05-30T12:23:46.463Z,17.74
2019-05-30T12:26:15.784Z,17.71
2019-05-30T12:28:45.357Z,17.75
2019-05-30T12:31:14.919Z,17.76
2019-05-30T12:33:44.277Z,17.68
2019-05-30T12:36:13.667Z,17.71
2019-05-30T12:38:42.999Z,17.72
2019-05-30T12:41:12.564Z,17.74
2019-05-30T12:43:41.889Z,17.77
2019-05-30T12:46:11.223Z,17.82
2019-05-30T12:48:40.547Z,17.80
2019-05-30T12:51:09.874Z,17.79
2019-05-30T12:53:40.980Z,17.79
2019-05-30T12:56:10.313Z,17.80
2019-05-30T12:58:41.179Z,17.79
2019-05-30T13:01:10.511Z,17.79
2019-05-30T13:03:39.902Z,17.81
2019-05-30T13:06:09.243Z,17.83
2019-05-30T13:08:38.564Z,17.86
2019-05-30T13:11:08.125Z,17.86
2019-05-30T13:13:37.454Z,17.90
2019-05-30T13:16:08.820Z,17.95
2019-05-30T13:18:38.125Z,17.99
2019-05-30T13:21:07.454Z,17.96
2019-05-30T13:23:36.817Z,17.99
2019-05-30T13:26:06.156Z,18.04
2019-05-30T13:28:36.449Z,18.07
2019-05-30T13:31:07.071Z,18.17
2019-05-30T13:33:38.603Z,18.21
2019-05-30T13:36:07.801Z,18.29
2019-05-30T13:38:37.357Z,18.33
2019-05-30T13:41:07.736Z,18.34
2019-05-30T13:43:38.553Z,18.43
2019-05-30T13:46:08.443Z,18.49
2019-05-30T13:48:37.798Z,18.51
2019-05-30T13:51:07.154Z,18.54
2019-05-30T13:53:36.692Z,18.51
2019-05-30T13:56:06.026Z,18.50
2019-05-30T13:58:35.358Z,18.55
2019-05-30T14:01:08.204Z,18.61
2019-05-30T14:03:35.711Z,18.71
2019-05-30T14:06:06.188Z,18.78
2019-05-30T14:08:41.634Z,18.74
2019-05-30T14:11:08.771Z,18.84
2019-05-30T14:13:38.100Z,18.98
2019-05-30T14:16:07.440Z,19.15
2019-05-30T14:18:36.802Z,19.27
2019-05-30T14:21:07.520Z,19.43
2019-05-30T14:23:37.197Z,19.50
2019-05-30T14:26:07.394Z,19.66
2019-05-30T14:28:37.024Z,19.85
2019-05-30T14:31:06.784Z,19.96
2019-05-30T14:33:37.139Z,20.14
2019-05-30T14:36:08.306Z,20.27
2019-05-30T14:38:37.725Z,20.30
2019-05-30T14:41:07.063Z,20.42
2019-05-30T14:43:36.461Z,20.51
2019-05-30T14:46:06.279Z,20.37
2019-05-30T14:48:35.912Z,20.41
2019-05-30T14:51:06.553Z,20.38
2019-05-30T14:53:35.888Z,20.34
2019-05-30T14:56:05.223Z,20.41
2019-05-30T14:58:34.552Z,20.44
2019-05-30T15:01:05.021Z,20.34
2019-05-30T15:03:34.621Z,20.29
2019-05-30T15:06:06.877Z,20.26
2019-05-30T15:08:35.057Z,20.30
2019-05-30T15:11:05.450Z,20.36
2019-05-30T15:13:34.798Z,20.38
2019-05-30T15:16:04.757Z,20.27
2019-05-30T15:18:34.033Z,20.21
2019-05-30T15:21:03.382Z,20.20
2019-05-30T15:23:32.718Z,20.22
2019-05-30T15:26:02.043Z,20.31
2019-05-30T15:28:31.377Z,20.39
2019-05-30T15:31:00.707Z,20.52
2019-05-30T15:33:30.042Z,20.56
2019-05-30T15:35:59.369Z,20.69
2019-05-30T15:38:28.941Z,20.69
2019-05-30T15:40:58.272Z,20.72
2019-05-30T15:43:27.610Z,20.78
2019-05-30T15:45:56.938Z,20.89
2019-05-30T15:48:26.275Z,20.95
2019-05-30T15:50:55.844Z,21.02
2019-05-30T15:53:25.179Z,21.12
2019-05-30T15:55:54.506Z,21.21
2019-05-30T15:58:24.016Z,21.31
2019-05-30T16:00:53.349Z,21.39
2019-05-30T16:03:22.671Z,21.38
2019-05-30T16:05:51.996Z,21.42
2019-05-30T16:08:21.343Z,21.38
2019-05-30T16:10:50.671Z,21.36
2019-05-30T16:13:20.006Z,21.40
2019-05-30T16:15:49.335Z,21.32
2019-05-30T16:18:19.810Z,21.28
2019-05-30T16:20:49.166Z,21.21
2019-05-30T16:23:18.829Z,21.23
2019-05-30T16:25:48.149Z,21.21
2019-05-30T16:28:17.836Z,21.22
2019-05-30T16:30:48.152Z,21.24
2019-05-30T16:33:18.006Z,21.20
2019-05-30T16:35:50.803Z,21.04
2019-05-30T16:38:20.477Z,21.02
2019-05-30T16:40:50.107Z,21.05
2019-05-30T16:43:20.377Z,21.00
2019-05-30T16:45:49.738Z,21.00
2019-05-30T16:48:20.460Z,20.96
2019-05-30T16:50:49.905Z,20.82
2019-05-30T16:53:22.287Z,20.85
2019-05-30T16:55:50.263Z,20.87
2019-05-30T16:58:20.289Z,20.85
2019-05-30T17:00:50.008Z,20.86
2019-05-30T17:03:19.810Z,20.87
2019-05-30T17:05:49.377Z,20.80
2019-05-30T17:08:20.035Z,20.81
2019-05-30T17:10:49.453Z,20.82
2019-05-30T17:13:19.610Z,20.83
2019-05-30T17:15:48.992Z,20.73
2019-05-30T17:18:20.252Z,20.67
2019-05-30T17:20:50.144Z,20.67
2019-05-30T17:23:20.620Z,20.70
2019-05-30T17:25:49.994Z,20.73
2019-05-30T17:28:20.309Z,20.71
2019-05-30T17:30:49.679Z,20.72
2019-05-30T17:33:20.728Z,20.63
2019-05-30T17:35:50.075Z,20.56
2019-05-30T17:38:20.513Z,20.57
2019-05-30T17:40:49.867Z,20.57
2019-05-30T17:43:21.017Z,20.58
2019-05-30T17:45:51.338Z,20.57
2019-05-30T17:48:21.466Z,20.56
2019-05-30T17:50:50.843Z,20.53
2019-05-30T17:53:20.175Z,20.50
2019-05-30T17:55:49.504Z,20.47
2019-05-30T17:58:20.517Z,20.45
2019-05-30T18:00:49.883Z,20.44
2019-05-30T18:03:20.394Z,20.44
2019-05-30T18:05:49.704Z,20.43
2019-05-30T18:08:19.027Z,20.41
2019-05-30T18:10:53.636Z,20.38
2019-05-30T18:13:20.903Z,20.38
2019-05-30T18:15:50.562Z,20.33
2019-05-30T18:18:21.059Z,20.30
2019-05-30T18:20:50.501Z,20.32
2019-05-30T18:23:21.309Z,20.32
2019-05-30T18:25:50.674Z,20.29
2019-05-30T18:28:20.009Z,20.24
2019-05-30T18:30:49.335Z,20.22
2019-05-30T18:33:18.748Z,20.21
2019-05-30T18:35:48.061Z,20.23
2019-05-30T18:38:17.393Z,20.24
2019-05-30T18:40:46.791Z,20.24
2019-05-30T18:43:16.146Z,20.23
2019-05-30T18:45:45.815Z,20.21
2019-05-30T18:48:15.558Z,20.13
2019-05-30T18:50:44.899Z,20.05
2019-05-30T18:53:14.226Z,20.06
2019-05-30T18:55:43.650Z,20.06
2019-05-30T18:58:13.285Z,20.05
2019-05-30T19:00:42.622Z,20.04
2019-05-30T19:03:11.955Z,19.98
2019-05-30T19:05:41.533Z,19.98
2019-05-30T19:08:10.860Z,19.96
2019-05-30T19:10:40.253Z,19.96
2019-05-30T19:13:09.583Z,19.98
2019-05-30T19:15:39.159Z,19.92
2019-05-30T19:18:09.419Z,19.93
2019-05-30T19:20:38.809Z,19.93
2019-05-30T19:23:08.389Z,19.87
2019-05-30T19:25:37.923Z,19.85
2019-05-30T19:28:07.231Z,19.86
2019-05-30T19:30:37.051Z,19.84
2019-05-30T19:33:06.916Z,19.84
2019-05-30T19:35:37.535Z,19.81
2019-05-30T19:38:07.554Z,19.80
2019-05-30T19:40:38.030Z,19.77
2019-05-30T19:43:07.424Z,19.69
2019-05-30T19:45:36.767Z,19.68
2019-05-30T19:48:06.097Z,19.64
2019-05-30T19:50:36.873Z,19.64
2019-05-30T19:53:06.205Z,19.62
2019-05-30T19:55:35.564Z,19.61
2019-05-30T19:58:06.008Z,19.57
2019-05-30T20:00:50.256Z,19.57
2019-05-30T20:03:06.604Z,19.56
2019-05-30T20:05:36.691Z,19.54
2019-05-30T20:08:06.107Z,19.54
2019-05-30T20:10:35.757Z,19.53
2019-05-30T20:13:05.393Z,19.51
2019-05-30T20:15:35.489Z,19.49
2019-05-30T20:18:04.901Z,19.47
2019-05-30T20:20:51.726Z,19.45
2019-05-30T20:23:05.507Z,19.45
2019-05-30T20:25:34.940Z,19.41
2019-05-30T20:28:04.980Z,19.38
2019-05-30T20:30:34.996Z,19.37
2019-05-30T20:33:04.520Z,19.30
2019-05-30T20:35:36.090Z,19.29
2019-05-30T20:38:04.945Z,19.26
2019-05-30T20:40:34.922Z,19.22
2019-05-30T20:43:04.386Z,19.20
2019-05-30T20:45:37.972Z,19.19
2019-05-30T20:48:04.973Z,19.15
2019-05-30T20:50:35.266Z,19.16
2019-05-30T20:53:04.667Z,19.15
2019-05-30T20:55:34.084Z,19.14
2019-05-30T20:58:03.482Z,19.08
2019-05-30T21:00:39.840Z,19.08
2019-05-30T21:03:09.463Z,19.02
2019-05-30T21:05:39.942Z,19.03
2019-05-30T21:08:09.273Z,19.03
2019-05-30T21:10:39.645Z,19.02
2019-05-30T21:13:08.974Z,18.98
2019-05-30T21:15:39.663Z,18.99
2019-05-30T21:18:09.026Z,19.00
2019-05-30T21:20:38.346Z,18.98
2019-05-30T21:23:07.688Z,18.99
2019-05-30T21:25:37.577Z,18.95
2019-05-30T21:28:08.103Z,18.98
2019-05-30T21:30:38.511Z,18.96
2019-05-30T21:33:08.270Z,18.95
2019-05-30T21:35:39.495Z,18.95
2019-05-30T21:38:09.092Z,18.93
2019-05-30T21:40:38.431Z,18.88
2019-05-30T21:43:08.969Z,18.87
2019-05-30T21:45:38.541Z,18.87
2019-05-30T21:48:08.171Z,18.86
2019-05-30T21:50:37.521Z,18.82
2019-05-30T21:53:06.858Z,18.81
2019-05-30T21:55:36.278Z,18.79
2019-05-30T21:58:06.067Z,18.77
2019-05-30T22:00:48.896Z,18.78
2019-05-30T22:03:19.908Z,18.77
2019-05-30T22:05:49.833Z,18.79
2019-05-30T22:08:20.336Z,18.78
2019-05-30T22:10:49.674Z,18.77
2019-05-30T22:13:18.991Z,18.76
2019-05-30T22:15:48.347Z,18.76
2019-05-30T22:18:17.665Z,18.75
2019-05-30T22:20:47.982Z,18.75
2019-05-30T22:23:17.476Z,18.77
2019-05-30T22:25:48.176Z,18.76
2019-05-30T22:28:17.883Z,18.73
2019-05-30T22:30:47.222Z,18.71
2019-05-30T22:33:16.553Z,18.70
2019-05-30T22:35:46.776Z,18.64
2019-05-30T22:38:16.194Z,18.63
2019-05-30T22:40:45.793Z,18.65
2019-05-30T22:43:24.760Z,18.63
2019-05-30T22:45:46.495Z,18.60
2019-05-30T22:48:16.085Z,18.60
2019-05-30T22:50:46.679Z,18.58
2019-05-30T22:53:17.219Z,18.60
2019-05-30T22:55:47.035Z,18.57
2019-05-30T22:58:16.467Z,18.56
2019-05-30T23:00:46.069Z,18.55
2019-05-30T23:03:15.518Z,18.55
2019-05-30T23:05:45.294Z,18.54
2019-05-30T23:08:14.757Z,18.56
2019-05-30T23:10:45.513Z,18.56
2019-05-30T23:13:15.013Z,18.55
2019-05-30T23:15:45.985Z,18.52
2019-05-30T23:18:15.399Z,18.50
2019-05-30T23:20:44.730Z,18.46
2019-05-30T23:23:14.063Z,18.43
2019-05-30T23:25:43.634Z,18.43
2019-05-30T23:28:13.966Z,18.40
2019-05-30T23:30:43.294Z,18.43
2019-05-30T23:33:12.627Z,18.42
2019-05-30T23:35:41.957Z,18.41
2019-05-30T23:38:12.260Z,18.36
2019-05-30T23:40:41.588Z,18.33
2019-05-30T23:43:10.916Z,18.34
2019-05-30T23:45:40.255Z,18.30
2019-05-30T23:48:09.585Z,18.26
2019-05-30T23:50:38.912Z,18.26
2019-05-30T23:53:08.243Z,18.29
2019-05-30T23:55:37.582Z,18.28
2019-05-30T23:58:06.908Z,18.29
